createdAt,value
2022-11-16T00:01:12.110Z,10.43
2022-11-16T00:03:41.378Z,10.38
2022-11-16T00:06:09.883Z,10.44
2022-11-16T00:08:38.971Z,10.42
2022-11-16T00:11:07.462Z,10.33
2022-11-16T00:13:35.379Z,10.33
2022-11-16T00:16:03.019Z,10.29
2022-11-16T00:18:31.046Z,10.41
2022-11-16T00:21:00.106Z,10.35
2022-11-16T00:23:28.514Z,10.36
2022-11-16T00:25:56.087Z,10.28
2022-11-16T00:28:23.618Z,10.18
2022-11-16T00:30:59.168Z,10.17
2022-11-16T00:33:27.167Z,10.09
2022-11-16T00:35:54.871Z,10.08
2022-11-16T00:38:24.169Z,10.20
2022-11-16T00:40:51.747Z,10.20
2022-11-16T00:43:19.433Z,10.20
2022-11-16T00:45:47.048Z,10.21
2022-11-16T00:48:14.615Z,10.22
2022-11-16T00:50:42.223Z,10.23
2022-11-16T00:53:13.584Z,10.19
2022-11-16T00:55:42.758Z,10.18
2022-11-16T00:58:10.286Z,10.22
2022-11-16T01:00:38.127Z,10.23
2022-11-16T01:03:05.766Z,10.18
2022-11-16T01:05:33.740Z,10.18
2022-11-16T01:08:01.348Z,10.19
2022-11-16T01:10:29.212Z,10.13
2022-11-16T01:12:57.301Z,10.29
2022-11-16T01:15:26.827Z,10.14
2022-11-16T01:17:55.845Z,10.14
2022-11-16T01:20:25.511Z,10.22
2022-11-16T01:22:53.404Z,10.14
2022-11-16T01:25:21.351Z,10.12
2022-11-16T01:27:48.926Z,10.11
2022-11-16T01:30:17.916Z,10.10
2022-11-16T01:32:45.500Z,10.13
2022-11-16T01:35:17.183Z,10.07
2022-11-16T01:37:45.048Z,10.13
2022-11-16T01:40:14.044Z,10.11
2022-11-16T01:42:41.934Z,10.07
2022-11-16T01:45:20.203Z,10.08
2022-11-16T01:47:47.843Z,10.03
2022-11-16T01:50:17.832Z,10.06
2022-11-16T01:52:48.113Z,9.97
2022-11-16T01:55:16.031Z,10.02
2022-11-16T01:57:44.983Z,10.02
2022-11-16T02:00:14.363Z,10.03
2022-11-16T02:02:43.579Z,10.03
2022-11-16T02:05:12.225Z,10.07
2022-11-16T02:08:07.063Z,10.08
2022-11-16T02:10:48.026Z,10.06
2022-11-16T02:13:24.827Z,10.11
2022-11-16T02:15:56.569Z,10.07
2022-11-16T02:18:32.762Z,10.15
2022-11-16T02:21:07.178Z,10.16
2022-11-16T02:24:07.409Z,10.13
2022-11-16T02:26:43.649Z,10.13
2022-11-16T02:29:24.352Z,10.15
2022-11-16T02:31:57.033Z,10.13
2022-11-16T02:34:25.825Z,9.98
2022-11-16T02:36:54.430Z,10.10
2022-11-16T02:39:25.963Z,10.12
2022-11-16T02:41:54.234Z,10.10
2022-11-16T02:44:26.851Z,10.12
2022-11-16T02:46:58.113Z,10.01
2022-11-16T02:49:26.960Z,10.02
2022-11-16T02:51:54.792Z,10.03
2022-11-16T02:54:24.899Z,9.99
2022-11-16T02:56:56.085Z,9.95
2022-11-16T02:59:27.630Z,10.02
2022-11-16T03:01:59.907Z,10.07
2022-11-16T03:04:30.600Z,10.00
2022-11-16T03:06:58.836Z,9.95
2022-11-16T03:09:28.915Z,9.88
2022-11-16T03:12:00.294Z,9.99
2022-11-16T03:14:32.837Z,9.97
2022-11-16T03:17:02.171Z,9.94
2022-11-16T03:19:34.823Z,9.94
2022-11-16T03:22:07.584Z,9.89
2022-11-16T03:24:35.193Z,9.97
2022-11-16T03:27:07.133Z,9.90
2022-11-16T03:29:42.034Z,9.84
2022-11-16T03:32:14.516Z,9.84
2022-11-16T03:34:45.591Z,9.85
2022-11-16T03:37:14.006Z,9.89
2022-11-16T03:39:42.082Z,9.96
2022-11-16T03:42:13.921Z,9.89
2022-11-16T03:44:43.708Z,9.88
2022-11-16T03:47:11.316Z,9.86
2022-11-16T03:49:38.862Z,9.88
2022-11-16T03:52:06.440Z,9.84
2022-11-16T03:54:33.966Z,9.91
2022-11-16T03:57:01.594Z,9.91
2022-11-16T03:59:29.140Z,9.91
2022-11-16T04:01:58.046Z,9.95
2022-11-16T04:04:43.109Z,9.97
2022-11-16T04:07:28.592Z,10.02
2022-11-16T04:10:13.751Z,9.95
2022-11-16T04:13:01.467Z,9.94
2022-11-16T04:15:46.735Z,9.94
2022-11-16T04:18:33.410Z,9.95
2022-11-16T04:21:19.113Z,9.92
2022-11-16T04:24:04.916Z,9.95
2022-11-16T04:26:46.583Z,9.89
2022-11-16T04:29:14.576Z,9.92
2022-11-16T04:31:59.904Z,9.93
2022-11-16T04:34:46.649Z,9.97
2022-11-16T04:37:33.991Z,9.98
2022-11-16T04:40:01.566Z,9.96
2022-11-16T04:42:29.119Z,9.93
2022-11-16T04:45:14.560Z,9.96
2022-11-16T04:47:42.123Z,9.95
2022-11-16T04:50:11.489Z,9.94
2022-11-16T04:52:39.054Z,9.95
2022-11-16T04:55:07.188Z,10.02
2022-11-16T04:57:34.746Z,9.96
2022-11-16T05:00:02.335Z,10.07
2022-11-16T05:02:29.858Z,9.97
2022-11-16T05:04:57.636Z,10.01
2022-11-16T05:07:26.630Z,9.95
2022-11-16T05:09:54.263Z,9.96
2022-11-16T05:12:23.895Z,9.96
2022-11-16T05:14:51.700Z,9.96
2022-11-16T05:17:19.715Z,9.95
2022-11-16T05:20:19.290Z,9.90
2022-11-16T05:22:53.508Z,9.92
2022-11-16T05:25:21.121Z,9.91
2022-11-16T05:27:48.660Z,9.99
2022-11-16T05:30:16.650Z,10.00
2022-11-16T05:32:44.502Z,9.91
2022-11-16T05:35:12.075Z,9.95
2022-11-16T05:37:41.488Z,9.97
2022-11-16T05:40:12.099Z,9.93
2022-11-16T05:42:39.680Z,9.94
2022-11-16T05:45:08.039Z,9.91
2022-11-16T05:47:35.605Z,9.92
2022-11-16T05:50:03.329Z,9.90
2022-11-16T05:52:30.863Z,9.91
2022-11-16T05:54:58.439Z,9.88
2022-11-16T05:57:27.369Z,9.93
2022-11-16T05:59:54.924Z,9.95
2022-11-16T06:02:22.457Z,9.96
2022-11-16T06:04:50.050Z,9.94
2022-11-16T06:07:17.647Z,9.89
2022-11-16T06:09:45.283Z,9.79
2022-11-16T06:12:12.784Z,9.82
2022-11-16T06:14:41.748Z,9.66
2022-11-16T06:17:10.267Z,9.65
2022-11-16T06:19:38.100Z,9.68
2022-11-16T06:22:06.123Z,9.59
2022-11-16T06:24:33.971Z,9.50
2022-11-16T06:27:01.711Z,9.44
2022-11-16T06:29:29.265Z,9.44
2022-11-16T06:31:58.371Z,9.41
2022-11-16T06:34:25.957Z,9.34
2022-11-16T06:36:53.597Z,9.32
2022-11-16T06:39:21.224Z,9.26
2022-11-16T06:41:48.914Z,9.32
2022-11-16T06:44:16.479Z,9.24
2022-11-16T06:46:43.954Z,9.21
2022-11-16T06:49:12.840Z,9.25
2022-11-16T06:51:40.586Z,9.20
2022-11-16T06:54:08.200Z,9.26
2022-11-16T06:56:36.004Z,9.16
2022-11-16T06:59:03.545Z,9.18
2022-11-16T07:01:31.221Z,9.12
2022-11-16T07:03:58.795Z,9.20
2022-11-16T07:06:27.749Z,9.16
2022-11-16T07:08:55.402Z,9.12
2022-11-16T07:11:22.987Z,9.17
2022-11-16T07:13:50.647Z,9.14
2022-11-16T07:16:18.250Z,9.17
2022-11-16T07:18:45.870Z,9.24
2022-11-16T07:21:15.030Z,9.32
2022-11-16T07:23:44.212Z,9.41
2022-11-16T07:26:12.674Z,9.48
2022-11-16T07:28:47.885Z,9.65
2022-11-16T07:31:17.287Z,9.79
2022-11-16T07:33:44.859Z,9.77
2022-11-16T07:36:13.842Z,9.90
2022-11-16T07:38:41.922Z,9.94
2022-11-16T07:41:12.131Z,9.98
2022-11-16T07:43:40.378Z,9.90
2022-11-16T07:48:58.762Z,9.70
2022-11-16T07:51:26.336Z,9.68
2022-11-16T07:53:55.518Z,9.61
2022-11-16T07:56:24.859Z,9.57
2022-11-16T07:58:52.486Z,9.56
2022-11-16T08:01:20.137Z,9.35
2022-11-16T08:03:48.157Z,9.47
2022-11-16T08:06:18.094Z,9.44
2022-11-16T08:08:45.864Z,9.29
2022-11-16T08:11:13.883Z,9.30
2022-11-16T08:13:43.498Z,9.30
2022-11-16T08:16:12.956Z,9.28
2022-11-16T08:18:41.631Z,9.30
2022-11-16T08:21:11.241Z,9.29
2022-11-16T08:23:40.192Z,9.47
2022-11-16T08:26:09.593Z,9.60
2022-11-16T08:28:38.314Z,9.60
2022-11-16T08:31:10.083Z,9.60
2022-11-16T08:33:37.623Z,9.49
2022-11-16T08:36:09.572Z,9.59
2022-11-16T08:38:40.543Z,9.69
2022-11-16T08:41:08.234Z,9.49
2022-11-16T08:43:36.165Z,9.49
2022-11-16T08:46:03.827Z,9.59
2022-11-16T08:48:33.211Z,9.56
2022-11-16T08:51:20.769Z,9.71
2022-11-16T08:53:49.306Z,9.55
2022-11-16T08:56:18.708Z,9.57
2022-11-16T08:58:47.129Z,9.66
2022-11-16T09:01:17.223Z,9.85
2022-11-16T09:03:46.912Z,9.99
2022-11-16T09:06:15.067Z,10.15
2022-11-16T09:08:44.535Z,9.98
2022-11-16T09:11:13.853Z,9.96
2022-11-16T09:13:41.555Z,10.00
2022-11-16T09:16:09.565Z,9.83
2022-11-16T09:18:37.807Z,9.70
2022-11-16T09:21:07.056Z,9.68
2022-11-16T09:23:34.707Z,9.69
2022-11-16T09:26:03.394Z,9.95
2022-11-16T09:28:31.478Z,10.20
2022-11-16T09:31:01.813Z,10.28
2022-11-16T09:33:31.214Z,10.46
2022-11-16T09:36:02.463Z,10.72
2022-11-16T09:38:54.144Z,10.91
2022-11-16T09:41:32.361Z,10.80
2022-11-16T09:44:04.917Z,11.06
2022-11-16T09:46:34.600Z,11.09
2022-11-16T09:49:13.945Z,11.16
2022-11-16T09:51:46.845Z,11.25
2022-11-16T09:54:18.028Z,11.31
2022-11-16T09:56:46.085Z,11.21
2022-11-16T09:59:18.504Z,11.39
2022-11-16T10:01:49.516Z,11.57
2022-11-16T10:04:21.855Z,11.34
2022-11-16T10:06:53.045Z,11.32
2022-11-16T10:09:22.250Z,11.31
2022-11-16T10:12:02.778Z,11.33
2022-11-16T10:14:39.346Z,11.22
2022-11-16T10:17:12.358Z,11.13
2022-11-16T10:19:48.863Z,11.08
2022-11-16T10:22:27.348Z,11.19
2022-11-16T10:24:59.869Z,11.18
2022-11-16T10:27:57.406Z,11.29
2022-11-16T10:30:25.088Z,11.44
2022-11-16T10:32:56.364Z,11.49
2022-11-16T10:35:27.952Z,11.54
2022-11-16T10:37:58.948Z,11.72
2022-11-16T10:40:31.102Z,11.86
2022-11-16T10:43:02.420Z,12.02
2022-11-16T10:45:38.962Z,12.11
2022-11-16T10:48:15.857Z,12.27
2022-11-16T10:50:45.408Z,12.41
2022-11-16T10:53:14.658Z,12.31
2022-11-16T10:55:43.601Z,12.54
2022-11-16T10:58:11.212Z,12.69
2022-11-16T11:00:42.297Z,12.92
2022-11-16T11:03:11.796Z,13.07
2022-11-16T11:05:48.812Z,12.87
2022-11-16T11:08:26.506Z,13.33
2022-11-16T11:11:03.079Z,13.11
2022-11-16T11:13:30.715Z,13.19
2022-11-16T11:16:16.249Z,13.16
2022-11-16T11:18:43.921Z,13.05
2022-11-16T11:21:15.185Z,12.94
2022-11-16T11:23:45.746Z,12.90
2022-11-16T11:26:35.870Z,13.00
2022-11-16T11:29:09.788Z,13.05
2022-11-16T11:31:43.277Z,13.19
2022-11-16T11:34:17.151Z,13.31
2022-11-16T11:36:47.046Z,13.40
2022-11-16T11:39:32.359Z,13.78
2022-11-16T11:42:22.902Z,13.77
2022-11-16T11:44:57.052Z,14.09
2022-11-16T11:47:56.830Z,14.10
2022-11-16T11:50:23.853Z,14.23
2022-11-16T11:53:02.735Z,14.03
2022-11-16T11:55:30.749Z,14.12
2022-11-16T11:58:00.521Z,14.10
2022-11-16T12:00:28.241Z,13.94
2022-11-16T12:03:25.115Z,14.18
2022-11-16T12:06:08.457Z,14.11
2022-11-16T12:08:50.853Z,14.38
2022-11-16T12:11:23.881Z,14.54
2022-11-16T12:14:06.918Z,14.53
2022-11-16T12:16:39.550Z,14.47
2022-11-16T12:19:22.244Z,14.41
2022-11-16T12:22:00.910Z,14.32
2022-11-16T12:24:41.455Z,14.46
2022-11-16T12:27:16.156Z,14.29
2022-11-16T12:29:52.397Z,14.36
2022-11-16T12:32:44.551Z,14.32
2022-11-16T12:35:31.740Z,14.35
2022-11-16T12:38:05.070Z,14.62
2022-11-16T12:40:38.903Z,14.67
2022-11-16T12:43:12.435Z,14.62
2022-11-16T12:45:49.850Z,14.78
2022-11-16T12:48:40.172Z,14.51
2022-11-16T12:51:13.329Z,14.62
2022-11-16T12:53:59.571Z,14.40
2022-11-16T12:56:36.690Z,14.59
2022-11-16T12:59:21.497Z,14.23
2022-11-16T13:02:00.451Z,14.13
2022-11-16T13:04:31.671Z,13.74
2022-11-16T13:07:09.328Z,13.46
2022-11-16T13:09:40.589Z,13.29
2022-11-16T13:12:14.157Z,13.15
2022-11-16T13:14:44.597Z,13.26
2022-11-16T13:17:20.651Z,13.31
2022-11-16T13:19:59.422Z,13.19
2022-11-16T13:22:28.152Z,13.07
2022-11-16T13:24:58.815Z,12.90
2022-11-16T13:27:33.070Z,13.00
2022-11-16T13:30:05.377Z,13.07
2022-11-16T13:32:45.721Z,13.19
2022-11-16T13:35:15.076Z,12.94
2022-11-16T13:37:46.849Z,12.94
2022-11-16T13:40:27.023Z,12.81
2022-11-16T13:43:04.942Z,12.90
2022-11-16T13:45:35.059Z,12.84
2022-11-16T13:48:08.262Z,12.99
2022-11-16T13:50:38.714Z,12.80
2022-11-16T13:55:57.757Z,12.59
2022-11-16T13:58:26.329Z,12.57
2022-11-16T14:01:00.543Z,12.51
2022-11-16T14:03:39.169Z,12.46
2022-11-16T14:06:31.689Z,12.38
2022-11-16T14:09:00.325Z,12.50
2022-11-16T14:11:34.083Z,12.54
2022-11-16T14:14:05.581Z,12.33
2022-11-16T14:16:50.575Z,12.24
2022-11-16T14:19:55.074Z,12.27
2022-11-16T14:22:35.455Z,12.13
2022-11-16T14:25:08.271Z,11.98
2022-11-16T14:27:40.701Z,12.01
2022-11-16T14:30:14.837Z,12.08
2022-11-16T14:32:45.665Z,11.91
2022-11-16T14:35:26.655Z,11.89
2022-11-16T14:37:58.496Z,11.79
2022-11-16T14:40:26.159Z,11.65
2022-11-16T14:43:15.345Z,11.57
2022-11-16T14:45:47.522Z,11.57
2022-11-16T14:48:17.868Z,11.50
2022-11-16T14:50:48.738Z,11.61
2022-11-16T14:53:17.929Z,11.66
2022-11-16T14:55:46.506Z,11.50
2022-11-16T14:58:19.591Z,11.61
2022-11-16T15:00:54.026Z,11.46
2022-11-16T15:03:23.522Z,11.35
2022-11-16T15:05:52.530Z,11.34
2022-11-16T15:08:23.876Z,11.25
2022-11-16T15:10:52.690Z,11.29
2022-11-16T15:13:22.047Z,11.26
2022-11-16T15:15:50.207Z,11.13
2022-11-16T15:18:22.973Z,11.16
2022-11-16T15:20:59.184Z,11.09
2022-11-16T15:23:30.657Z,11.16
2022-11-16T15:26:00.174Z,11.08
2022-11-16T15:28:29.120Z,11.07
2022-11-16T15:30:59.038Z,10.96
2022-11-16T15:33:29.350Z,10.96
2022-11-16T15:35:58.626Z,11.05
2022-11-16T15:38:28.062Z,10.96
2022-11-16T15:40:57.655Z,10.89
2022-11-16T15:43:27.158Z,10.91
2022-11-16T15:45:55.083Z,10.84
2022-11-16T15:48:24.050Z,10.84
2022-11-16T15:51:07.087Z,10.87
2022-11-16T15:53:37.657Z,10.90
2022-11-16T15:56:07.302Z,10.88
2022-11-16T15:58:38.790Z,10.79
2022-11-16T16:01:06.837Z,10.84
2022-11-16T16:03:36.577Z,10.77
2022-11-16T16:06:07.705Z,10.76
2022-11-16T16:08:36.968Z,10.75
2022-11-16T16:11:07.767Z,10.70
2022-11-16T16:13:38.284Z,10.74
2022-11-16T16:16:26.030Z,10.62
2022-11-16T16:18:54.952Z,10.58
2022-11-16T16:21:24.305Z,10.64
2022-11-16T16:23:53.566Z,10.68
2022-11-16T16:26:22.378Z,10.77
2022-11-16T16:28:51.151Z,10.61
2022-11-16T16:31:20.050Z,10.62
2022-11-16T16:33:47.888Z,10.67
2022-11-16T16:36:15.447Z,10.64
2022-11-16T16:38:44.347Z,10.55
2022-11-16T16:41:23.774Z,10.57
2022-11-16T16:43:52.016Z,10.56
2022-11-16T16:46:20.006Z,10.50
2022-11-16T16:48:47.595Z,10.46
2022-11-16T16:51:15.277Z,10.45
2022-11-16T16:53:44.191Z,10.43
2022-11-16T16:56:15.963Z,10.53
2022-11-16T16:58:43.523Z,10.37
2022-11-16T17:01:11.798Z,10.33
2022-11-16T17:03:39.375Z,10.31
2022-11-16T17:06:07.169Z,10.47
2022-11-16T17:08:35.327Z,10.47
2022-11-16T17:11:04.635Z,10.38
2022-11-16T17:13:32.362Z,10.35
2022-11-16T17:16:00.136Z,10.35
2022-11-16T17:18:27.958Z,10.35
2022-11-16T17:20:55.522Z,10.23
2022-11-16T17:23:23.130Z,10.29
2022-11-16T17:25:50.651Z,10.25
2022-11-16T17:28:19.567Z,10.25
2022-11-16T17:30:47.106Z,10.23
2022-11-16T17:33:14.621Z,10.21
2022-11-16T17:35:42.380Z,10.21
2022-11-16T17:38:12.298Z,10.20
2022-11-16T17:40:39.842Z,10.21
2022-11-16T17:43:07.392Z,10.18
2022-11-16T17:45:36.257Z,10.06
2022-11-16T17:48:03.911Z,10.13
2022-11-16T17:50:31.450Z,10.09
2022-11-16T17:52:58.971Z,10.08
2022-11-16T17:55:26.560Z,10.14
2022-11-16T17:57:54.134Z,10.15
2022-11-16T18:00:21.833Z,10.10
2022-11-16T18:02:50.755Z,10.07
2022-11-16T18:05:18.341Z,10.04
2022-11-16T18:07:45.887Z,10.07
2022-11-16T18:10:18.930Z,10.09
2022-11-16T18:12:46.816Z,10.00
2022-11-16T18:15:28.185Z,10.06
2022-11-16T18:17:58.075Z,9.99
2022-11-16T18:20:27.577Z,10.02
2022-11-16T18:22:55.151Z,10.01
2022-11-16T18:25:22.783Z,9.94
2022-11-16T18:27:52.625Z,10.00
2022-11-16T18:30:20.487Z,10.01
2022-11-16T18:32:48.162Z,10.01
2022-11-16T18:35:17.664Z,9.95
2022-11-16T18:37:45.192Z,9.99
2022-11-16T18:40:13.667Z,10.01
2022-11-16T18:42:41.824Z,9.99
2022-11-16T18:45:10.212Z,10.00
2022-11-16T18:47:37.901Z,9.92
2022-11-16T18:50:16.347Z,9.95
2022-11-16T18:52:48.026Z,9.86
2022-11-16T18:55:15.672Z,9.90
2022-11-16T18:57:43.217Z,9.95
2022-11-16T19:00:12.012Z,9.85
2022-11-16T19:02:39.576Z,9.94
2022-11-16T19:05:08.450Z,9.92
2022-11-16T19:07:36.079Z,9.93
2022-11-16T19:10:05.669Z,9.92
2022-11-16T19:12:33.283Z,10.03
2022-11-16T19:15:00.872Z,10.10
2022-11-16T19:17:28.416Z,10.03
2022-11-16T19:19:56.018Z,9.92
2022-11-16T19:22:23.569Z,10.07
2022-11-16T19:24:51.187Z,10.02
2022-11-16T19:27:20.130Z,9.94
2022-11-16T19:29:47.719Z,9.96
2022-11-16T19:32:15.285Z,9.96
2022-11-16T19:34:42.936Z,9.94
2022-11-16T19:37:10.703Z,9.88
2022-11-16T19:39:38.442Z,9.95
2022-11-16T19:42:06.199Z,10.15
2022-11-16T19:44:35.210Z,10.00
2022-11-16T19:47:02.782Z,10.14
2022-11-16T19:49:30.361Z,10.00
2022-11-16T19:51:59.256Z,10.08
2022-11-16T19:54:27.103Z,9.99
2022-11-16T19:56:55.377Z,9.94
2022-11-16T19:59:23.144Z,9.90
2022-11-16T20:01:52.062Z,9.89
2022-11-16T20:04:19.665Z,9.83
2022-11-16T20:06:47.254Z,9.85
2022-11-16T20:09:14.842Z,9.84
2022-11-16T20:11:42.913Z,9.85
2022-11-16T20:14:13.594Z,9.86
2022-11-16T20:16:42.706Z,9.91
2022-11-16T20:19:11.645Z,9.99
2022-11-16T20:21:40.304Z,9.98
2022-11-16T20:24:10.493Z,9.93
2022-11-16T20:26:41.640Z,9.88
2022-11-16T20:29:11.570Z,9.88
2022-11-16T20:31:42.417Z,9.84
2022-11-16T20:34:14.761Z,9.81
2022-11-16T20:36:43.607Z,9.81
2022-11-16T20:39:13.844Z,9.82
2022-11-16T20:41:41.481Z,9.88
2022-11-16T20:44:16.364Z,9.85
2022-11-16T20:46:45.173Z,9.81
2022-11-16T20:49:14.365Z,9.77
2022-11-16T20:51:42.345Z,9.82
2022-11-16T20:54:09.988Z,9.69
2022-11-16T20:56:37.665Z,9.76
2022-11-16T20:59:05.320Z,9.70
2022-11-16T21:01:33.023Z,9.69
2022-11-16T21:04:02.016Z,9.69
2022-11-16T21:06:31.182Z,9.68
2022-11-16T21:08:59.303Z,9.71
2022-11-16T21:11:28.954Z,9.74
2022-11-16T21:14:14.118Z,9.74
2022-11-16T21:16:41.687Z,9.83
2022-11-16T21:19:09.332Z,9.77
2022-11-16T21:21:40.374Z,9.77
2022-11-16T21:24:08.924Z,9.78
2022-11-16T21:26:37.094Z,9.77
2022-11-16T21:29:04.785Z,9.77
2022-11-16T21:31:34.125Z,9.73
2022-11-16T21:34:02.135Z,9.76
2022-11-16T21:36:31.070Z,9.76
2022-11-16T21:39:00.896Z,9.71
2022-11-16T21:41:28.622Z,9.78
2022-11-16T21:43:56.645Z,9.65
2022-11-16T21:46:25.885Z,9.75
2022-11-16T21:48:55.293Z,9.73
2022-11-16T21:51:25.267Z,9.63
2022-11-16T21:53:53.071Z,9.70
2022-11-16T21:56:23.276Z,9.66
2022-11-16T21:58:52.644Z,9.61
2022-11-16T22:01:20.685Z,9.60
2022-11-16T22:04:08.346Z,9.61
2022-11-16T22:06:53.992Z,9.65
2022-11-16T22:09:22.088Z,9.65
2022-11-16T22:11:51.025Z,9.69
2022-11-16T22:14:18.622Z,9.68
2022-11-16T22:16:46.212Z,9.70
2022-11-16T22:19:13.773Z,9.66
2022-11-16T22:21:41.406Z,9.69
2022-11-16T22:24:09.546Z,9.90
2022-11-16T22:26:38.100Z,9.84
2022-11-16T22:29:07.030Z,9.84
2022-11-16T22:31:36.036Z,9.78
2022-11-16T22:34:03.927Z,9.81
2022-11-16T22:36:31.532Z,9.80
2022-11-16T22:38:59.085Z,9.83
2022-11-16T22:41:26.860Z,9.78
2022-11-16T22:43:54.449Z,9.74
2022-11-16T22:46:23.360Z,9.75
2022-11-16T22:48:50.961Z,9.69
2022-11-16T22:51:20.530Z,9.68
2022-11-16T22:53:48.462Z,9.66
2022-11-16T22:56:16.229Z,9.67
2022-11-16T22:58:43.803Z,9.63
2022-11-16T23:01:11.347Z,9.63
2022-11-16T23:03:40.852Z,9.66
2022-11-16T23:06:09.048Z,9.63
2022-11-16T23:08:36.935Z,9.62
2022-11-16T23:11:23.608Z,9.67
2022-11-16T23:14:09.293Z,9.71
2022-11-16T23:16:42.141Z,9.86
2022-11-16T23:19:26.763Z,9.76
2022-11-16T23:22:12.369Z,9.81
2022-11-16T23:24:58.191Z,9.77
2022-11-16T23:27:33.213Z,9.73
2022-11-16T23:30:06.424Z,9.66
2022-11-16T23:32:38.063Z,9.61
2022-11-16T23:35:08.311Z,9.63
2022-11-16T23:37:36.657Z,9.67
2022-11-16T23:40:04.978Z,9.66
2022-11-16T23:42:50.684Z,9.63
2022-11-16T23:45:18.459Z,9.62
2022-11-16T23:47:46.273Z,9.60
2022-11-16T23:50:15.339Z,9.63
2022-11-16T23:52:43.394Z,9.67
2022-11-16T23:55:11.246Z,9.62
2022-11-16T23:57:39.053Z,9.60
